createdAt,value
2023-05-18T00:02:27.317Z,12.63
2023-05-18T00:04:54.014Z,8.77
2023-05-18T00:07:20.631Z,9.13
2023-05-18T00:09:47.312Z,8.57
2023-05-18T00:12:13.949Z,8.20
2023-05-18T00:14:40.650Z,9.60
2023-05-18T00:17:07.372Z,10.73
2023-05-18T00:19:35.401Z,9.82
2023-05-18T00:22:02.134Z,7.77
2023-05-18T00:24:28.844Z,8.65
2023-05-18T00:26:55.447Z,9.38
2023-05-18T00:29:21.969Z,7.35
2023-05-18T00:31:48.623Z,8.55
2023-05-18T00:34:16.117Z,8.73
2023-05-18T00:36:44.072Z,11.43
2023-05-18T00:39:10.815Z,7.82
2023-05-18T00:41:37.400Z,11.05
2023-05-18T00:44:04.143Z,10.13
2023-05-18T00:46:30.899Z,8.50
2023-05-18T00:48:58.261Z,7.07
2023-05-18T00:51:25.357Z,10.20
2023-05-18T00:53:54.878Z,9.48
2023-05-18T00:56:22.276Z,9.43
2023-05-18T00:58:49.959Z,9.03
2023-05-18T01:01:17.208Z,7.95
2023-05-18T01:03:43.834Z,7.50
2023-05-18T01:06:10.654Z,8.07
2023-05-18T01:08:37.515Z,9.68
2023-05-18T01:11:15.065Z,8.30
2023-05-18T01:13:51.552Z,10.65
2023-05-18T01:16:25.624Z,7.40
2023-05-18T01:18:56.218Z,8.85
2023-05-18T01:21:38.159Z,10.82
2023-05-18T01:24:22.443Z,8.60
2023-05-18T01:26:51.791Z,7.22
2023-05-18T01:29:20.712Z,10.15
2023-05-18T01:31:47.379Z,7.75
2023-05-18T01:34:13.972Z,6.60
2023-05-18T01:36:40.748Z,9.07
2023-05-18T01:39:08.925Z,7.07
2023-05-18T01:41:39.470Z,8.82
2023-05-18T01:44:13.269Z,7.40
2023-05-18T01:46:46.566Z,7.85
2023-05-18T01:49:20.683Z,8.10
2023-05-18T01:51:49.894Z,7.50
2023-05-18T01:54:19.026Z,7.88
2023-05-18T01:56:47.889Z,6.97
2023-05-18T01:59:16.762Z,11.65
2023-05-18T02:01:43.548Z,6.23
2023-05-18T02:04:10.707Z,7.75
2023-05-18T02:06:37.636Z,8.43
2023-05-18T02:09:05.087Z,8.77
2023-05-18T02:11:31.742Z,7.53
2023-05-18T02:13:58.337Z,7.37
2023-05-18T02:16:26.335Z,7.55
2023-05-18T02:18:53.065Z,7.95
2023-05-18T02:21:19.686Z,9.50
2023-05-18T02:23:46.241Z,9.20
2023-05-18T02:26:12.976Z,6.87
2023-05-18T02:28:39.555Z,8.75
2023-05-18T02:31:07.484Z,9.88
2023-05-18T02:33:35.686Z,7.75
2023-05-18T02:36:02.428Z,6.78
2023-05-18T02:38:28.942Z,9.03
2023-05-18T02:40:55.475Z,7.22
2023-05-18T02:43:22.151Z,9.75
2023-05-18T02:45:48.689Z,6.93
2023-05-18T02:48:15.432Z,7.03
2023-05-18T02:50:43.486Z,7.87
2023-05-18T02:53:10.041Z,8.38
2023-05-18T02:55:36.742Z,9.13
2023-05-18T02:58:03.330Z,9.93
2023-05-18T03:00:30.153Z,7.47
2023-05-18T03:02:56.776Z,6.80
2023-05-18T03:05:23.518Z,7.80
2023-05-18T03:07:52.129Z,8.55
2023-05-18T03:10:19.213Z,8.38
2023-05-18T03:12:45.794Z,6.75
2023-05-18T03:15:12.722Z,8.93
2023-05-18T03:17:39.633Z,8.37
2023-05-18T03:20:07.306Z,8.18
2023-05-18T03:22:33.912Z,8.80
2023-05-18T03:25:01.898Z,7.30
2023-05-18T03:27:28.527Z,8.35
2023-05-18T03:29:55.077Z,8.17
2023-05-18T03:32:21.639Z,8.05
2023-05-18T03:34:48.385Z,8.57
2023-05-18T03:37:15.006Z,8.23
2023-05-18T03:39:41.741Z,9.55
2023-05-18T03:42:10.085Z,7.30
2023-05-18T03:44:37.003Z,11.82
2023-05-18T03:47:03.814Z,9.40
2023-05-18T03:49:30.404Z,8.43
2023-05-18T03:51:57.022Z,9.82
2023-05-18T03:54:23.598Z,8.60
2023-05-18T03:56:50.341Z,7.55
2023-05-18T03:59:18.208Z,7.00
2023-05-18T04:01:44.857Z,10.27
2023-05-18T04:04:11.542Z,8.35
2023-05-18T04:06:38.165Z,9.50
2023-05-18T04:09:04.888Z,7.05
2023-05-18T04:11:31.565Z,7.10
2023-05-18T04:13:58.178Z,6.95
2023-05-18T04:16:26.256Z,7.95
2023-05-18T04:18:52.997Z,8.37
2023-05-18T04:21:19.631Z,8.52
2023-05-18T04:23:46.417Z,8.82
2023-05-18T04:26:13.957Z,8.13
2023-05-18T04:28:40.521Z,8.60
2023-05-18T04:31:07.114Z,7.07
2023-05-18T04:33:35.019Z,9.15
2023-05-18T04:36:01.780Z,8.88
2023-05-18T04:38:28.334Z,9.45
2023-05-18T04:40:54.935Z,7.75
2023-05-18T04:43:21.496Z,9.80
2023-05-18T04:45:48.203Z,7.28
2023-05-18T04:48:14.895Z,8.13
2023-05-18T04:50:42.779Z,7.63
2023-05-18T04:53:09.519Z,7.90
2023-05-18T04:55:36.326Z,9.13
2023-05-18T04:58:02.919Z,10.43
2023-05-18T05:00:29.925Z,9.07
2023-05-18T05:02:57.795Z,8.02
2023-05-18T05:05:25.185Z,9.18
2023-05-18T05:07:53.843Z,6.87
2023-05-18T05:10:20.723Z,9.70
2023-05-18T05:12:49.345Z,9.02
2023-05-18T05:15:16.292Z,7.75
2023-05-18T05:17:43.078Z,10.63
2023-05-18T05:20:09.984Z,9.23
2023-05-18T05:22:36.633Z,7.82
2023-05-18T05:25:06.290Z,8.98
2023-05-18T05:27:33.124Z,9.20
2023-05-18T05:29:59.843Z,10.07
2023-05-18T05:32:26.650Z,8.93
2023-05-18T05:34:53.283Z,10.50
2023-05-18T05:37:20.069Z,9.57
2023-05-18T05:39:46.649Z,8.23
2023-05-18T05:42:14.571Z,8.60
2023-05-18T05:44:41.328Z,10.30
2023-05-18T05:47:08.515Z,11.05
2023-05-18T05:49:35.145Z,9.18
2023-05-18T05:52:02.146Z,8.90
2023-05-18T05:54:28.699Z,11.63
2023-05-18T05:56:55.279Z,11.10
2023-05-18T05:59:23.189Z,9.93
2023-05-18T06:01:49.972Z,8.52
2023-05-18T06:04:16.571Z,9.95
2023-05-18T06:06:43.296Z,9.82
2023-05-18T06:09:09.862Z,11.93
2023-05-18T06:11:36.433Z,9.93
2023-05-18T06:14:03.058Z,10.20
2023-05-18T06:16:31.164Z,9.00
2023-05-18T06:18:57.892Z,12.20
2023-05-18T06:21:30.662Z,8.83
2023-05-18T06:24:07.558Z,8.77
2023-05-18T06:26:36.117Z,10.85
2023-05-18T06:32:17.290Z,10.80
2023-05-18T06:35:24.004Z,9.20
2023-05-18T06:37:53.030Z,9.88
2023-05-18T06:40:21.658Z,9.75
2023-05-18T06:42:51.731Z,7.95
2023-05-18T06:45:26.129Z,9.68
2023-05-18T06:50:16.119Z,8.80
2023-05-18T06:50:42.648Z,9.20
2023-05-18T06:53:14.672Z,10.10
2023-05-18T06:55:43.011Z,8.20
2023-05-18T06:58:09.777Z,7.88
2023-05-18T07:03:07.742Z,9.83
2023-05-18T07:03:33.100Z,6.90
2023-05-18T07:05:59.710Z,8.90
2023-05-18T07:08:41.666Z,9.60
2023-05-18T07:11:15.871Z,8.05
2023-05-18T07:13:42.448Z,6.77
2023-05-18T07:16:09.195Z,7.23
2023-05-18T07:18:35.764Z,6.88
2023-05-18T07:21:02.350Z,8.32
2023-05-18T07:23:30.486Z,6.85
2023-05-18T07:25:57.382Z,7.13
2023-05-18T07:28:23.913Z,8.27
2023-05-18T07:30:50.511Z,7.15
2023-05-18T07:33:17.268Z,7.00
2023-05-18T07:35:43.871Z,7.10
2023-05-18T07:38:11.475Z,8.45
2023-05-18T07:40:39.522Z,8.90
2023-05-18T07:43:06.063Z,9.40
2023-05-18T07:45:32.902Z,8.90
2023-05-18T07:47:59.677Z,6.45
2023-05-18T07:50:26.379Z,7.97
2023-05-18T07:52:52.876Z,8.73
2023-05-18T07:55:19.541Z,7.30
2023-05-18T07:57:48.142Z,9.95
2023-05-18T08:00:16.108Z,7.25
2023-05-18T08:02:43.342Z,7.50
2023-05-18T08:05:10.546Z,6.87
2023-05-18T08:07:37.101Z,6.10
2023-05-18T08:10:04.020Z,8.35
2023-05-18T08:12:30.788Z,11.82
2023-05-18T08:14:58.712Z,8.25
2023-05-18T08:17:25.271Z,7.43
2023-05-18T08:19:51.893Z,5.65
2023-05-18T08:22:18.448Z,9.25
2023-05-18T08:24:45.118Z,7.30
2023-05-18T08:27:12.004Z,7.43
2023-05-18T08:29:38.564Z,9.13
2023-05-18T08:32:07.530Z,11.27
2023-05-18T08:34:34.426Z,10.82
2023-05-18T08:37:01.181Z,6.53
2023-05-18T08:39:27.758Z,7.47
2023-05-18T08:42:01.066Z,9.30
2023-05-18T08:44:33.972Z,10.02
2023-05-18T08:47:00.682Z,6.70
2023-05-18T08:49:31.000Z,6.22
2023-05-18T08:52:03.214Z,5.80
2023-05-18T08:54:30.971Z,6.60
2023-05-18T08:56:58.715Z,6.88
2023-05-18T08:59:29.544Z,6.60
2023-05-18T09:01:56.871Z,8.80
2023-05-18T09:04:24.201Z,7.18
2023-05-18T09:06:54.266Z,10.33
2023-05-18T09:09:22.237Z,7.80
2023-05-18T09:11:50.753Z,7.47
2023-05-18T09:14:17.313Z,7.43
2023-05-18T09:16:43.891Z,7.50
2023-05-18T09:19:10.708Z,8.90
2023-05-18T09:21:37.321Z,8.05
2023-05-18T09:24:06.165Z,8.30
2023-05-18T09:26:33.262Z,6.10
2023-05-18T09:28:59.826Z,10.38
2023-05-18T09:31:26.637Z,7.43
2023-05-18T09:33:53.380Z,7.50
2023-05-18T09:36:25.317Z,7.80
2023-05-18T09:38:52.330Z,9.38
2023-05-18T09:41:20.460Z,6.53
2023-05-18T09:43:48.488Z,6.70
2023-05-18T09:46:18.368Z,7.45
2023-05-18T09:48:51.720Z,7.82
2023-05-18T09:51:18.977Z,7.95
2023-05-18T09:53:48.759Z,7.65
2023-05-18T09:56:17.995Z,8.10
2023-05-18T09:58:46.851Z,7.18
2023-05-18T10:01:13.740Z,6.10
2023-05-18T10:03:40.481Z,6.70
2023-05-18T10:06:08.568Z,7.18
2023-05-18T10:08:36.305Z,8.40
2023-05-18T10:11:03.625Z,8.15
2023-05-18T10:13:31.452Z,7.57
2023-05-18T10:16:00.733Z,12.32
2023-05-18T10:18:28.988Z,6.93
2023-05-18T10:20:59.874Z,6.23
2023-05-18T10:23:31.896Z,8.73
2023-05-18T10:25:59.028Z,7.47
2023-05-18T10:28:27.591Z,7.05
2023-05-18T10:30:56.062Z,10.38
2023-05-18T10:33:29.498Z,7.33
2023-05-18T10:35:58.098Z,9.48
2023-05-18T10:38:26.779Z,7.70
2023-05-18T10:40:55.923Z,6.75
2023-05-18T10:43:24.167Z,7.05
2023-05-18T10:45:53.708Z,8.57
2023-05-18T10:48:21.885Z,8.27
2023-05-18T10:50:51.480Z,9.75
2023-05-18T10:53:19.502Z,9.27
2023-05-18T10:55:47.241Z,8.10
2023-05-18T10:58:16.304Z,7.43
2023-05-18T11:00:49.603Z,7.72
2023-05-18T11:03:17.522Z,9.32
2023-05-18T11:05:48.606Z,7.93
2023-05-18T11:08:24.875Z,7.25
2023-05-18T11:11:00.141Z,7.60
2023-05-18T11:13:29.218Z,6.93
2023-05-18T11:16:08.913Z,7.07
2023-05-18T11:18:39.326Z,7.53
2023-05-18T11:21:22.094Z,7.60
2023-05-18T11:24:15.777Z,7.20
2023-05-18T11:26:43.208Z,6.50
2023-05-18T11:29:20.749Z,6.32
2023-05-18T11:31:48.819Z,6.85
2023-05-18T11:34:35.500Z,6.90
2023-05-18T11:37:04.203Z,7.70
2023-05-18T11:39:32.897Z,8.23
2023-05-18T11:42:00.795Z,8.82
2023-05-18T11:44:28.588Z,7.13
2023-05-18T11:47:00.162Z,7.90
2023-05-18T11:49:27.839Z,6.07
2023-05-18T11:52:02.735Z,7.80
2023-05-18T11:54:35.369Z,6.65
2023-05-18T11:57:02.141Z,6.60
2023-05-18T11:59:33.338Z,7.07
2023-05-18T12:02:01.671Z,8.73
2023-05-18T12:04:28.580Z,9.52
2023-05-18T12:06:56.714Z,8.13
2023-05-18T12:09:24.737Z,7.00
2023-05-18T12:11:55.009Z,7.45
2023-05-18T12:14:22.702Z,7.87
2023-05-18T12:16:49.445Z,7.15
2023-05-18T12:19:17.941Z,6.25
2023-05-18T12:21:44.619Z,6.32
2023-05-18T12:24:11.257Z,6.78
2023-05-18T12:26:38.070Z,5.87
2023-05-18T12:29:05.985Z,7.40
2023-05-18T12:31:34.032Z,8.73
2023-05-18T12:34:01.828Z,6.22
2023-05-18T12:36:28.411Z,8.75
2023-05-18T12:38:54.990Z,6.17
2023-05-18T12:41:22.762Z,6.30
2023-05-18T12:43:49.415Z,7.25
2023-05-18T12:46:17.862Z,6.07
2023-05-18T12:48:46.509Z,7.10
2023-05-18T12:51:21.026Z,6.67
2023-05-18T12:53:49.159Z,8.90
2023-05-18T12:56:16.040Z,6.28
2023-05-18T12:58:55.667Z,6.57
2023-05-18T13:01:23.981Z,7.30
2023-05-18T13:03:55.794Z,7.07
2023-05-18T13:06:22.708Z,7.20
2023-05-18T13:08:49.435Z,8.75
2023-05-18T13:11:15.983Z,5.68
2023-05-18T13:13:58.682Z,5.78
2023-05-18T13:16:26.752Z,6.83
2023-05-18T13:18:57.880Z,5.35
2023-05-18T13:21:24.862Z,6.53
2023-05-18T13:23:51.939Z,6.07
2023-05-18T13:26:18.651Z,8.48
2023-05-18T13:28:46.785Z,6.13
2023-05-18T13:31:13.485Z,8.10
2023-05-18T13:33:41.727Z,6.95
2023-05-18T13:36:08.958Z,6.97
2023-05-18T13:38:35.557Z,6.88
2023-05-18T13:41:02.252Z,5.00
2023-05-18T13:43:28.925Z,7.32
2023-05-18T13:45:55.575Z,7.15
2023-05-18T13:48:22.357Z,6.25
2023-05-18T13:50:50.546Z,6.00
2023-05-18T13:53:17.258Z,7.33
2023-05-18T13:55:43.824Z,7.32
2023-05-18T13:58:10.415Z,8.27
2023-05-18T14:00:37.102Z,5.70
2023-05-18T14:03:04.337Z,6.57
2023-05-18T14:05:30.986Z,6.67
2023-05-18T14:07:59.063Z,5.93
2023-05-18T14:10:25.634Z,6.72
2023-05-18T14:12:52.163Z,6.63
2023-05-18T14:15:18.899Z,5.95
2023-05-18T14:17:45.703Z,7.13
2023-05-18T14:20:12.785Z,8.07
2023-05-18T14:22:39.981Z,5.72
2023-05-18T14:25:08.928Z,6.28
2023-05-18T14:27:35.687Z,5.50
2023-05-18T14:30:02.452Z,6.63
2023-05-18T14:32:29.062Z,6.30
2023-05-18T14:34:55.793Z,6.32
2023-05-18T14:37:22.534Z,7.22
2023-05-18T14:39:49.407Z,7.95
2023-05-18T14:42:17.689Z,7.00
2023-05-18T14:44:44.252Z,6.93
2023-05-18T14:47:10.985Z,6.97
2023-05-18T14:49:37.911Z,6.05
2023-05-18T14:52:05.256Z,6.65
2023-05-18T14:54:31.851Z,6.50
2023-05-18T14:56:58.421Z,5.97
2023-05-18T14:59:26.349Z,6.60
2023-05-18T15:01:52.946Z,7.78
2023-05-18T15:04:19.738Z,10.05
2023-05-18T15:06:46.313Z,7.93
2023-05-18T15:09:13.002Z,5.78
2023-05-18T15:11:39.500Z,5.28
2023-05-18T15:14:06.061Z,6.75
2023-05-18T15:16:34.005Z,5.60
2023-05-18T15:19:00.804Z,5.80
2023-05-18T15:21:27.632Z,6.18
2023-05-18T15:23:54.298Z,6.05
2023-05-18T15:26:20.884Z,6.15
2023-05-18T15:28:47.426Z,7.60
2023-05-18T15:31:14.066Z,7.07
2023-05-18T15:33:42.374Z,6.93
2023-05-18T15:36:08.985Z,6.03
2023-05-18T15:38:35.731Z,5.57
2023-05-18T15:41:02.502Z,5.78
2023-05-18T15:43:29.112Z,5.67
2023-05-18T15:45:55.774Z,6.43
2023-05-18T15:48:22.394Z,7.15
2023-05-18T15:50:50.482Z,6.95
2023-05-18T15:53:17.213Z,6.03
2023-05-18T15:55:43.818Z,7.07
2023-05-18T15:58:10.585Z,6.30
2023-05-18T16:00:37.387Z,5.22
2023-05-18T16:03:04.010Z,5.22
2023-05-18T16:05:30.641Z,6.15
2023-05-18T16:07:58.585Z,7.10
2023-05-18T16:10:25.137Z,6.53
2023-05-18T16:12:51.821Z,7.50
2023-05-18T16:15:18.367Z,5.30
2023-05-18T16:17:44.917Z,5.97
2023-05-18T16:20:12.224Z,6.47
2023-05-18T16:22:38.731Z,7.22
2023-05-18T16:25:09.760Z,5.93
2023-05-18T16:27:36.280Z,4.97
2023-05-18T16:30:02.905Z,6.85
2023-05-18T16:32:29.695Z,7.10
2023-05-18T16:34:56.362Z,5.40
2023-05-18T16:37:22.924Z,4.95
2023-05-18T16:39:49.491Z,5.55
2023-05-18T16:42:17.651Z,6.82
2023-05-18T16:44:44.566Z,5.97
2023-05-18T16:47:11.147Z,5.82
2023-05-18T16:49:37.693Z,8.15
2023-05-18T16:52:04.746Z,6.75
2023-05-18T16:54:31.311Z,5.68
2023-05-18T16:56:57.929Z,5.97
2023-05-18T16:59:25.854Z,6.47
2023-05-18T17:01:52.559Z,7.13
2023-05-18T17:04:19.182Z,5.82
2023-05-18T17:06:45.995Z,5.22
2023-05-18T17:09:12.722Z,6.20
2023-05-18T17:11:39.298Z,6.60
2023-05-18T17:14:05.973Z,5.72
2023-05-18T17:16:34.109Z,6.63
2023-05-18T17:19:00.691Z,6.65
2023-05-18T17:21:27.378Z,6.57
2023-05-18T17:23:53.940Z,6.50
2023-05-18T17:26:21.627Z,8.15
2023-05-18T17:28:48.359Z,7.63
2023-05-18T17:31:15.044Z,6.28
2023-05-18T17:33:43.184Z,7.40
2023-05-18T17:36:09.877Z,8.95
2023-05-18T17:38:36.914Z,6.53
2023-05-18T17:41:03.623Z,6.22
2023-05-18T17:43:30.581Z,5.60
2023-05-18T17:45:57.176Z,5.33
2023-05-18T17:48:23.720Z,6.32
2023-05-18T17:50:51.796Z,5.97
2023-05-18T17:53:18.470Z,6.05
2023-05-18T17:55:45.015Z,6.43
2023-05-18T17:58:11.717Z,6.20
2023-05-18T18:00:38.289Z,6.95
2023-05-18T18:03:04.999Z,7.10
2023-05-18T18:05:33.966Z,5.57
2023-05-18T18:08:03.072Z,5.22
2023-05-18T18:10:29.798Z,6.67
2023-05-18T18:12:56.539Z,6.50
2023-05-18T18:15:23.236Z,6.43
2023-05-18T18:17:49.823Z,6.85
2023-05-18T18:20:16.466Z,5.40
2023-05-18T18:22:43.049Z,5.50
2023-05-18T18:25:11.100Z,5.50
2023-05-18T18:27:37.608Z,6.90
2023-05-18T18:30:04.826Z,6.85
2023-05-18T18:32:31.530Z,6.40
2023-05-18T18:34:58.184Z,6.23
2023-05-18T18:37:24.904Z,5.85
2023-05-18T18:39:51.513Z,6.82
2023-05-18T18:42:21.452Z,6.15
2023-05-18T18:44:48.376Z,6.43
2023-05-18T18:47:15.138Z,6.03
2023-05-18T18:49:41.638Z,6.15
2023-05-18T18:52:08.207Z,5.97
2023-05-18T18:54:34.931Z,7.65
2023-05-18T18:57:01.467Z,5.35
2023-05-18T18:59:29.576Z,7.00
2023-05-18T19:01:56.218Z,6.88
2023-05-18T19:04:22.841Z,8.23
2023-05-18T19:06:49.540Z,5.93
2023-05-18T19:09:16.064Z,5.65
2023-05-18T19:11:42.981Z,5.13
2023-05-18T19:14:09.556Z,7.50
2023-05-18T19:16:37.573Z,5.32
2023-05-18T19:19:04.769Z,5.07
2023-05-18T19:21:31.433Z,5.53
2023-05-18T19:23:57.963Z,6.73
2023-05-18T19:26:24.541Z,6.78
2023-05-18T19:28:51.074Z,5.30
2023-05-18T19:31:17.831Z,6.82
2023-05-18T19:33:45.822Z,5.10
2023-05-18T19:36:12.455Z,7.30
2023-05-18T19:38:39.061Z,4.88
2023-05-18T19:41:05.793Z,7.35
2023-05-18T19:43:32.339Z,5.18
2023-05-18T19:45:58.901Z,5.93
2023-05-18T19:48:25.590Z,6.53
2023-05-18T19:50:53.533Z,5.43
2023-05-18T19:53:20.220Z,5.03
2023-05-18T19:55:48.754Z,4.85
2023-05-18T19:58:15.578Z,6.10
2023-05-18T20:00:42.071Z,6.17
2023-05-18T20:03:08.678Z,6.43
2023-05-18T20:05:35.491Z,6.78
2023-05-18T20:08:03.556Z,5.97
2023-05-18T20:10:30.286Z,6.70
2023-05-18T20:12:57.076Z,6.30
2023-05-18T20:15:23.616Z,5.33
2023-05-18T20:17:50.412Z,6.75
2023-05-18T20:20:17.036Z,5.22
2023-05-18T20:22:43.774Z,6.90
2023-05-18T20:25:11.765Z,8.30
2023-05-18T20:27:38.306Z,9.43
2023-05-18T20:30:05.900Z,10.57
2023-05-18T20:32:32.777Z,9.32
2023-05-18T20:34:59.423Z,10.35
2023-05-18T20:37:25.924Z,9.35
2023-05-18T20:39:52.482Z,7.43
2023-05-18T20:42:22.068Z,8.02
2023-05-18T20:44:49.202Z,8.18
2023-05-18T20:47:15.759Z,7.38
2023-05-18T20:49:42.389Z,7.85
2023-05-18T20:52:09.063Z,9.47
2023-05-18T20:54:35.602Z,9.48
2023-05-18T20:57:02.373Z,10.55
2023-05-18T20:59:30.392Z,8.95
2023-05-18T21:01:57.243Z,10.32
2023-05-18T21:04:23.940Z,7.10
2023-05-18T21:06:50.707Z,7.87
2023-05-18T21:09:17.978Z,10.52
2023-05-18T21:11:44.472Z,13.18
2023-05-18T21:14:11.183Z,11.55
2023-05-18T21:16:39.744Z,15.63
2023-05-18T21:19:06.515Z,11.93
2023-05-18T21:21:33.268Z,13.90
2023-05-18T21:24:01.000Z,15.90
2023-05-18T21:26:27.903Z,17.13
2023-05-18T21:28:54.511Z,18.17
2023-05-18T21:31:21.177Z,19.23
2023-05-18T21:33:49.171Z,16.00
2023-05-18T21:36:16.053Z,18.48
2023-05-18T21:38:43.053Z,13.32
2023-05-18T21:41:09.651Z,14.32
2023-05-18T21:43:36.367Z,10.98
2023-05-18T21:46:03.017Z,10.17
2023-05-18T21:48:29.723Z,9.30
2023-05-18T21:50:58.039Z,10.98
2023-05-18T21:53:25.829Z,9.30
2023-05-18T21:55:52.394Z,9.43
2023-05-18T21:58:18.922Z,9.30
2023-05-18T22:00:45.684Z,6.10
2023-05-18T22:03:12.181Z,7.40
2023-05-18T22:05:38.755Z,8.25
2023-05-18T22:08:07.246Z,7.85
2023-05-18T22:10:33.918Z,5.80
2023-05-18T22:13:00.877Z,7.03
2023-05-18T22:15:27.627Z,7.70
2023-05-18T22:17:54.555Z,8.32
2023-05-18T22:20:21.249Z,8.88
2023-05-18T22:22:47.804Z,7.82
2023-05-18T22:25:16.198Z,7.38
2023-05-18T22:27:42.880Z,9.37
2023-05-18T22:30:10.416Z,14.10
2023-05-18T22:32:37.752Z,10.55
2023-05-18T22:35:05.296Z,10.20
2023-05-18T22:37:31.905Z,8.52
2023-05-18T22:39:58.436Z,7.60
2023-05-18T22:42:26.367Z,7.87
2023-05-18T22:44:52.939Z,7.30
2023-05-18T22:47:19.654Z,10.35
2023-05-18T22:49:46.264Z,9.25
2023-05-18T22:52:12.807Z,7.75
2023-05-18T22:54:39.388Z,8.85
2023-05-18T22:57:05.965Z,7.60
2023-05-18T22:59:34.507Z,7.43
2023-05-18T23:02:01.234Z,8.20
2023-05-18T23:04:27.815Z,6.85
2023-05-18T23:06:54.394Z,9.07
2023-05-18T23:09:20.970Z,8.70
2023-05-18T23:11:47.622Z,8.03
2023-05-18T23:14:14.146Z,6.53
2023-05-18T23:16:42.249Z,7.95
2023-05-18T23:19:09.160Z,6.28
2023-05-18T23:21:35.672Z,9.38
2023-05-18T23:24:02.405Z,6.87
2023-05-18T23:26:28.972Z,9.85
2023-05-18T23:28:55.464Z,7.97
2023-05-18T23:31:22.189Z,7.25
2023-05-18T23:33:50.963Z,7.13
2023-05-18T23:36:20.216Z,6.03
2023-05-18T23:38:48.861Z,8.43
2023-05-18T23:41:16.043Z,7.32
2023-05-18T23:43:43.217Z,8.30
2023-05-18T23:46:10.690Z,6.05
2023-05-18T23:48:38.317Z,6.53
2023-05-18T23:51:10.957Z,6.67
2023-05-18T23:53:38.120Z,7.18
2023-05-18T23:56:06.790Z,7.20
2023-05-18T23:58:34.055Z,6.65
